Μαλάτεια, Turkey

11:19 PM EEST on Σεπτέμβριος 29, 2016 (GMT +0300)
Erhac Air Base | | Change Station

Elev 2785 ft 38.44 °N, 38.09 °E | Updated 29 minutes ago

Clear
Αίθριος
61 ° F
Feels Like 61 ° F
N
5
Ανεμος Μεταβλητός Ανεμος from Μεταβλητός

Σήμερα
High -- | Low -- ° F
--% Chance of Precip.
Yesterday
High -- | Low -- ° F
Precip. -- in
Ατμοσφαιρική Πίεση 30.09 in
Ορατότητα -9999.0 Μίλια
Σύννεφα
Σημείο Δρόσου 36 ° F
Υγρασία 39%
Rainfall 0.00 in
Snow Depth Not available.
6:21 AM 6:13 PM
Μηνίσκος, 1% visible
METAR LTAT 291950Z VRB04KT CAVOK 16/02 Q1019 NOSIG
Ατμοσφαιρική Πίεση 30.09 in
Ορατότητα -9999.0 Μίλια
Σύννεφα
Σημείο Δρόσου 36 ° F
Υγρασία 39%
Rainfall 0.00 in
Snow Depth Not available.
6:21 AM 6:13 PM
Μηνίσκος, 1% visible
METAR LTAT 291950Z VRB04KT CAVOK 16/02 Q1019 NOSIG

10-Day Weather Forecast

×

Almanac

Αστρονομία

Sep. 29, 2016 Rise Set
Actual Time
Civil Twilight
Nautical Twilight
Astronomical Twilight
Moon
Length Of Visible Light
Διάρκεια ημέρας
Tomorrow will be .
, % of the Moon is Illuminated

Today's Extremes

Country Highs Country Lows

Community

WunderPhotos

Upload Photos

1,942,560 photos uploaded!

WunderBlog® & News

Nearby

Air Quality

  Air Quality AQ Index Pollutant
Not available.

Snow Depth

Station Depth Elevation

Earthquake Activity

City Distance Mag. Time & Date
Minimum magnitude displayed is 2.5.

Coastal Water Temperatures

Τοποθεσία Θερμοκρασία

Stations

Nearby Weather Stations

Station Location Temp Δείκτης Ψυχρότητας Σημείο Δρόσου Υγρασία Ανεμος Precip. Elev Ενημερώθηκε Type